Kinross Charter Township, MI

5:02 AM EDT on August 02, 2015 (GMT -0400)
Chippewa County International | | Change Station
CLOSE
Current Station
Airport
Location: Chippewa,
Elevation: 801 ft
Nearby Weather Stations

Elev 801 ft 46.25 °N, 84.48 °W | Updated 7 minutes ago

Partly Cloudy
Partly Cloudy
63 °F
Feels Like 63 °F
N
5
Wind Variable Wind from SW

Today
High -- | Low -- °F
--% Chance of Precip.
Yesterday
High -- | Low -- °F
Precip. -- in
6:20 AM 9:07 PM
Waning Gibbous, 95% visible
Pressure 29.71 in
Visibility 10.0 miles
Clouds Few 12000 ft
Dew Point 61 °F
Humidity 94%
Rainfall 0.00 in
Snow Depth Not available.
UV 0 out of 12
Pollen 6.50 out of 12
Air Quality Not available.
Flu Activity Not available.
METAR KCIU 020855Z AUTO 22004KT 10SM FEW120 17/16 A2971 RMK AO1 57014

More Conditions Fewer Conditions

Pressure 29.71 in
Visibility 10.0 miles
Clouds Few 12000 ft
Dew Point 61 °F
Humidity 94%
Rainfall 0.00 in
Snow Depth Not available.
UV 0 out of 12
Pollen 6.50 out of 12
Air Quality Not available.
Flu Activity Not available.
METAR KCIU 020855Z AUTO 22004KT 10SM FEW120 17/16 A2971 RMK AO1 57014

More Conditions Fewer Conditions

Nowcast | as of 5:00 am EDT on August 2, 2015

At 6 am...mostly cloudy. Temperature 62. South winds 5 mph. At 8 am...mostly cloudy. Temperature 64. Light winds. At 10 am...cloudy. Temperature 70. Southwest winds 7 mph. At 12 PM...periods of thunderstorms. Temperature 72. Southwest winds 7 mph.

×

10-Day Weather Forecast

×

Almanac

Astronomy

Aug. 02, 2015 Rise Set
Actual Time
Civil Twilight
Nautical Twilight
Astronomical Twilight
Moon
Length of Visible Light
Length of Day
Tomorrow will be .
, % of the Moon is Illuminated

Today's Extremes

State Highs State Lows

Community

WunderPhotos

Upload Photos

1,843,208 photos uploaded!

WunderBlogs® & News

Nearby

Air Quality

  Air Quality AQ Index Pollutant
Not available.

Snow Depth

Station Depth Elevation

Earthquake Activity

City Distance Mag. Time & Date
Minimum magnitude displayed is 2.5.

Coastal Water Temperatures

Place Temperature

Stations

Nearby Weather Stations

Station Location Temp. Windchill Dew Point Humidity Wind Precip. Elev Updated Type